sensor_id;sensor_type;location;lat;lon;timestamp;P1;durP1;ratioP1;P2;durP2;ratioP2
74383;SDS011;62824;52.994;-3.936;2023-06-10T00:02:03;11.20;;;6.68;;
74383;SDS011;62824;52.994;-3.936;2023-06-10T00:04:29;9.50;;;6.25;;
74383;SDS011;62824;52.994;-3.936;2023-06-10T00:06:55;9.70;;;6.95;;
74383;SDS011;62824;52.994;-3.936;2023-06-10T00:09:22;10.52;;;6.68;;
74383;SDS011;62824;52.994;-3.936;2023-06-10T00:11:48;9.07;;;6.97;;
74383;SDS011;62824;52.994;-3.936;2023-06-10T00:14:13;10.07;;;7.13;;
74383;SDS011;62824;52.994;-3.936;2023-06-10T00:16:39;12.82;;;7.22;;
74383;SDS011;62824;52.994;-3.936;2023-06-10T00:19:05;12.05;;;7.28;;
74383;SDS011;62824;52.994;-3.936;2023-06-10T00:21:33;7.85;;;6.72;;
74383;SDS011;62824;52.994;-3.936;2023-06-10T00:24:05;10.87;;;7.30;;
74383;SDS011;62824;52.994;-3.936;2023-06-10T00:26:38;11.40;;;6.78;;
74383;SDS011;62824;52.994;-3.936;2023-06-10T00:29:04;11.25;;;6.57;;
74383;SDS011;62824;52.994;-3.936;2023-06-10T00:31:30;12.43;;;7.00;;
74383;SDS011;62824;52.994;-3.936;2023-06-10T00:33:56;14.68;;;7.25;;
74383;SDS011;62824;52.994;-3.936;2023-06-10T00:36:22;14.63;;;7.35;;
74383;SDS011;62824;52.994;-3.936;2023-06-10T00:38:47;8.27;;;6.35;;
74383;SDS011;62824;52.994;-3.936;2023-06-10T00:41:13;11.50;;;7.53;;
74383;SDS011;62824;52.994;-3.936;2023-06-10T00:43:39;11.25;;;7.28;;
74383;SDS011;62824;52.994;-3.936;2023-06-10T00:46:05;15.40;;;7.78;;
74383;SDS011;62824;52.994;-3.936;2023-06-10T00:48:31;12.23;;;7.13;;
74383;SDS011;62824;52.994;-3.936;2023-06-10T00:50:57;12.70;;;7.25;;
74383;SDS011;62824;52.994;-3.936;2023-06-10T00:53:25;12.38;;;6.88;;
74383;SDS011;62824;52.994;-3.936;2023-06-10T00:55:52;11.05;;;6.40;;
74383;SDS011;62824;52.994;-3.936;2023-06-10T00:58:18;10.20;;;6.60;;
74383;SDS011;62824;52.994;-3.936;2023-06-10T01:00:44;10.95;;;6.78;;
74383;SDS011;62824;52.994;-3.936;2023-06-10T01:03:11;11.43;;;7.32;;
74383;SDS011;62824;52.994;-3.936;2023-06-10T01:05:37;12.07;;;6.32;;
74383;SDS011;62824;52.994;-3.936;2023-06-10T01:08:09;12.40;;;6.90;;
74383;SDS011;62824;52.994;-3.936;2023-06-10T01:10:38;9.75;;;6.97;;
74383;SDS011;62824;52.994;-3.936;2023-06-10T01:13:11;14.35;;;7.10;;
74383;SDS011;62824;52.994;-3.936;2023-06-10T01:15:39;12.15;;;6.55;;
74383;SDS011;62824;52.994;-3.936;2023-06-10T01:18:08;11.10;;;7.03;;
74383;SDS011;62824;52.994;-3.936;2023-06-10T01:20:40;11.65;;;7.40;;
74383;SDS011;62824;52.994;-3.936;2023-06-10T01:23:08;12.57;;;7.30;;
74383;SDS011;62824;52.994;-3.936;2023-06-10T01:25:38;11.75;;;7.18;;
74383;SDS011;62824;52.994;-3.936;2023-06-10T01:30:53;9.40;;;7.15;;
74383;SDS011;62824;52.994;-3.936;2023-06-10T01:33:26;14.55;;;7.55;;
74383;SDS011;62824;52.994;-3.936;2023-06-10T01:35:55;10.50;;;6.82;;
74383;SDS011;62824;52.994;-3.936;2023-06-10T01:38:23;15.55;;;7.82;;
74383;SDS011;62824;52.994;-3.936;2023-06-10T01:40:52;10.68;;;7.22;;
74383;SDS011;62824;52.994;-3.936;2023-06-10T01:43:20;10.07;;;7.80;;
74383;SDS011;62824;52.994;-3.936;2023-06-10T01:45:46;14.40;;;6.90;;
74383;SDS011;62824;52.994;-3.936;2023-06-10T01:48:12;11.65;;;7.35;;
74383;SDS011;62824;52.994;-3.936;2023-06-10T01:50:38;11.63;;;7.20;;
74383;SDS011;62824;52.994;-3.936;2023-06-10T01:53:04;8.35;;;6.90;;
74383;SDS011;62824;52.994;-3.936;2023-06-10T01:55:32;13.70;;;8.50;;
74383;SDS011;62824;52.994;-3.936;2023-06-10T01:57:58;11.05;;;7.45;;
74383;SDS011;62824;52.994;-3.936;2023-06-10T02:00:24;13.07;;;7.18;;
74383;SDS011;62824;52.994;-3.936;2023-06-10T02:02:49;12.15;;;7.20;;
74383;SDS011;62824;52.994;-3.936;2023-06-10T02:05:15;11.45;;;7.10;;
74383;SDS011;62824;52.994;-3.936;2023-06-10T02:07:41;12.05;;;8.45;;
74383;SDS011;62824;52.994;-3.936;2023-06-10T02:10:07;10.82;;;7.65;;
74383;SDS011;62824;52.994;-3.936;2023-06-10T02:12:33;11.88;;;7.57;;
74383;SDS011;62824;52.994;-3.936;2023-06-10T02:14:59;10.73;;;7.45;;
74383;SDS011;62824;52.994;-3.936;2023-06-10T02:17:24;12.82;;;8.02;;
74383;SDS011;62824;52.994;-3.936;2023-06-10T02:19:51;11.05;;;8.15;;
74383;SDS011;62824;52.994;-3.936;2023-06-10T02:22:20;13.00;;;8.25;;
74383;SDS011;62824;52.994;-3.936;2023-06-10T02:24:46;12.93;;;7.97;;
74383;SDS011;62824;52.994;-3.936;2023-06-10T02:27:13;14.60;;;9.00;;
74383;SDS011;62824;52.994;-3.936;2023-06-10T02:29:39;15.27;;;9.73;;
74383;SDS011;62824;52.994;-3.936;2023-06-10T02:32:06;13.40;;;8.60;;
74383;SDS011;62824;52.994;-3.936;2023-06-10T02:34:32;12.63;;;8.55;;
74383;SDS011;62824;52.994;-3.936;2023-06-10T02:36:59;13.50;;;8.52;;
74383;SDS011;62824;52.994;-3.936;2023-06-10T02:39:24;17.27;;;9.07;;
74383;SDS011;62824;52.994;-3.936;2023-06-10T02:41:50;13.95;;;9.70;;
74383;SDS011;62824;52.994;-3.936;2023-06-10T02:44:17;13.05;;;9.20;;
74383;SDS011;62824;52.994;-3.936;2023-06-10T02:46:43;12.85;;;9.23;;
74383;SDS011;62824;52.994;-3.936;2023-06-10T02:49:09;13.95;;;10.45;;
74383;SDS011;62824;52.994;-3.936;2023-06-10T02:51:36;11.27;;;9.27;;
74383;SDS011;62824;52.994;-3.936;2023-06-10T02:54:02;14.65;;;10.55;;
74383;SDS011;62824;52.994;-3.936;2023-06-10T02:56:28;15.40;;;9.75;;
74383;SDS011;62824;52.994;-3.936;2023-06-10T02:58:53;13.05;;;10.13;;
74383;SDS011;62824;52.994;-3.936;2023-06-10T03:01:19;13.93;;;9.30;;
74383;SDS011;62824;52.994;-3.936;2023-06-10T03:03:45;12.52;;;9.13;;
74383;SDS011;62824;52.994;-3.936;2023-06-10T03:06:11;16.30;;;9.63;;
74383;SDS011;62824;52.994;-3.936;2023-06-10T03:08:38;13.05;;;9.55;;
74383;SDS011;62824;52.994;-3.936;2023-06-10T03:11:04;13.13;;;9.18;;
74383;SDS011;62824;52.994;-3.936;2023-06-10T03:13:30;14.32;;;9.73;;
74383;SDS011;62824;52.994;-3.936;2023-06-10T03:15:55;12.05;;;8.90;;
74383;SDS011;62824;52.994;-3.936;2023-06-10T03:18:25;13.18;;;9.18;;
74383;SDS011;62824;52.994;-3.936;2023-06-10T03:20:52;13.55;;;9.20;;
74383;SDS011;62824;52.994;-3.936;2023-06-10T03:23:17;12.30;;;8.27;;
74383;SDS011;62824;52.994;-3.936;2023-06-10T03:25:44;13.48;;;9.60;;
74383;SDS011;62824;52.994;-3.936;2023-06-10T03:28:10;13.15;;;9.70;;
74383;SDS011;62824;52.994;-3.936;2023-06-10T03:30:36;12.82;;;9.07;;
74383;SDS011;62824;52.994;-3.936;2023-06-10T03:33:02;11.13;;;8.90;;
74383;SDS011;62824;52.994;-3.936;2023-06-10T03:35:27;12.90;;;9.80;;
74383;SDS011;62824;52.994;-3.936;2023-06-10T03:37:54;17.88;;;9.80;;
74383;SDS011;62824;52.994;-3.936;2023-06-10T03:40:20;13.98;;;9.70;;
74383;SDS011;62824;52.994;-3.936;2023-06-10T03:42:46;15.23;;;9.45;;
74383;SDS011;62824;52.994;-3.936;2023-06-10T03:45:11;14.10;;;10.30;;
74383;SDS011;62824;52.994;-3.936;2023-06-10T03:47:37;14.48;;;9.85;;
74383;SDS011;62824;52.994;-3.936;2023-06-10T03:50:06;14.30;;;10.48;;
74383;SDS011;62824;52.994;-3.936;2023-06-10T03:52:33;15.93;;;10.02;;
74383;SDS011;62824;52.994;-3.936;2023-06-10T03:54:59;13.93;;;10.15;;
74383;SDS011;62824;52.994;-3.936;2023-06-10T03:57:25;14.73;;;11.00;;
74383;SDS011;62824;52.994;-3.936;2023-06-10T03:59:51;13.98;;;11.55;;
74383;SDS011;62824;52.994;-3.936;2023-06-10T04:02:17;15.10;;;10.73;;
74383;SDS011;62824;52.994;-3.936;2023-06-10T04:04:43;15.52;;;11.20;;
74383;SDS011;62824;52.994;-3.936;2023-06-10T04:07:08;16.90;;;10.38;;
74383;SDS011;62824;52.994;-3.936;2023-06-10T04:09:35;14.50;;;10.52;;
74383;SDS011;62824;52.994;-3.936;2023-06-10T04:12:01;19.10;;;11.93;;
74383;SDS011;62824;52.994;-3.936;2023-06-10T04:14:31;15.65;;;10.60;;
74383;SDS011;62824;52.994;-3.936;2023-06-10T04:16:56;15.13;;;11.30;;
74383;SDS011;62824;52.994;-3.936;2023-06-10T04:19:22;14.88;;;10.00;;
74383;SDS011;62824;52.994;-3.936;2023-06-10T04:21:48;16.55;;;11.00;;
74383;SDS011;62824;52.994;-3.936;2023-06-10T04:24:14;16.98;;;11.15;;
74383;SDS011;62824;52.994;-3.936;2023-06-10T04:26:39;14.35;;;10.85;;
74383;SDS011;62824;52.994;-3.936;2023-06-10T04:29:05;14.00;;;11.15;;
74383;SDS011;62824;52.994;-3.936;2023-06-10T04:31:31;13.55;;;10.25;;
74383;SDS011;62824;52.994;-3.936;2023-06-10T04:33:57;16.33;;;10.80;;
74383;SDS011;62824;52.994;-3.936;2023-06-10T04:36:23;15.68;;;10.48;;
74383;SDS011;62824;52.994;-3.936;2023-06-10T04:38:48;17.08;;;10.38;;
74383;SDS011;62824;52.994;-3.936;2023-06-10T04:41:17;14.05;;;10.35;;
74383;SDS011;62824;52.994;-3.936;2023-06-10T04:43:43;18.50;;;10.20;;
74383;SDS011;62824;52.994;-3.936;2023-06-10T04:46:08;15.35;;;10.15;;
74383;SDS011;62824;52.994;-3.936;2023-06-10T04:48:35;16.00;;;11.10;;
74383;SDS011;62824;52.994;-3.936;2023-06-10T04:51:02;15.63;;;10.65;;
74383;SDS011;62824;52.994;-3.936;2023-06-10T04:53:27;17.42;;;11.48;;
74383;SDS011;62824;52.994;-3.936;2023-06-10T04:55:53;12.48;;;10.73;;
74383;SDS011;62824;52.994;-3.936;2023-06-10T04:58:19;15.07;;;10.90;;
74383;SDS011;62824;52.994;-3.936;2023-06-10T05:00:45;15.77;;;10.48;;
74383;SDS011;62824;52.994;-3.936;2023-06-10T05:03:10;14.57;;;10.30;;
74383;SDS011;62824;52.994;-3.936;2023-06-10T05:05:36;17.08;;;10.90;;
74383;SDS011;62824;52.994;-3.936;2023-06-10T05:08:02;15.80;;;11.52;;
74383;SDS011;62824;52.994;-3.936;2023-06-10T05:10:28;14.57;;;10.45;;
74383;SDS011;62824;52.994;-3.936;2023-06-10T05:12:56;15.25;;;10.35;;
74383;SDS011;62824;52.994;-3.936;2023-06-10T05:15:23;18.73;;;11.45;;
74383;SDS011;62824;52.994;-3.936;2023-06-10T05:17:49;13.60;;;9.90;;
74383;SDS011;62824;52.994;-3.936;2023-06-10T05:20:15;14.85;;;10.57;;
74383;SDS011;62824;52.994;-3.936;2023-06-10T05:22:41;13.60;;;10.68;;
74383;SDS011;62824;52.994;-3.936;2023-06-10T05:25:07;17.30;;;11.25;;
74383;SDS011;62824;52.994;-3.936;2023-06-10T05:27:33;16.23;;;11.27;;
74383;SDS011;62824;52.994;-3.936;2023-06-10T05:29:58;13.40;;;10.55;;
74383;SDS011;62824;52.994;-3.936;2023-06-10T05:32:24;13.48;;;10.65;;
74383;SDS011;62824;52.994;-3.936;2023-06-10T05:34:50;14.73;;;10.50;;
74383;SDS011;62824;52.994;-3.936;2023-06-10T05:37:16;13.27;;;9.57;;
74383;SDS011;62824;52.994;-3.936;2023-06-10T05:39:41;16.58;;;10.63;;
74383;SDS011;62824;52.994;-3.936;2023-06-10T05:42:07;13.18;;;10.18;;
74383;SDS011;62824;52.994;-3.936;2023-06-10T05:44:33;16.27;;;11.10;;
74383;SDS011;62824;52.994;-3.936;2023-06-10T05:47:00;15.30;;;10.18;;
74383;SDS011;62824;52.994;-3.936;2023-06-10T05:49:25;14.43;;;9.25;;
74383;SDS011;62824;52.994;-3.936;2023-06-10T05:51:52;14.52;;;10.52;;
74383;SDS011;62824;52.994;-3.936;2023-06-10T05:54:18;14.30;;;9.85;;
74383;SDS011;62824;52.994;-3.936;2023-06-10T05:56:44;14.15;;;10.05;;
74383;SDS011;62824;52.994;-3.936;2023-06-10T05:59:10;11.65;;;9.95;;
74383;SDS011;62824;52.994;-3.936;2023-06-10T06:01:35;14.90;;;9.88;;
74383;SDS011;62824;52.994;-3.936;2023-06-10T06:04:01;13.38;;;10.40;;
74383;SDS011;62824;52.994;-3.936;2023-06-10T06:06:28;16.20;;;10.23;;
74383;SDS011;62824;52.994;-3.936;2023-06-10T06:08:54;14.43;;;9.70;;
74383;SDS011;62824;52.994;-3.936;2023-06-10T06:11:20;13.40;;;9.70;;
74383;SDS011;62824;52.994;-3.936;2023-06-10T06:13:45;13.40;;;9.57;;
74383;SDS011;62824;52.994;-3.936;2023-06-10T06:16:13;14.48;;;9.85;;
74383;SDS011;62824;52.994;-3.936;2023-06-10T06:18:39;16.40;;;9.93;;
74383;SDS011;62824;52.994;-3.936;2023-06-10T06:21:04;15.30;;;9.23;;
74383;SDS011;62824;52.994;-3.936;2023-06-10T06:23:30;13.65;;;9.40;;
74383;SDS011;62824;52.994;-3.936;2023-06-10T06:25:56;13.02;;;8.93;;
74383;SDS011;62824;52.994;-3.936;2023-06-10T06:28:21;12.70;;;9.45;;
74383;SDS011;62824;52.994;-3.936;2023-06-10T06:30:47;14.48;;;9.45;;
74383;SDS011;62824;52.994;-3.936;2023-06-10T06:33:13;12.95;;;9.15;;
74383;SDS011;62824;52.994;-3.936;2023-06-10T06:35:39;14.20;;;8.70;;
74383;SDS011;62824;52.994;-3.936;2023-06-10T06:38:05;10.05;;;7.97;;
74383;SDS011;62824;52.994;-3.936;2023-06-10T06:40:31;12.15;;;9.38;;
74383;SDS011;62824;52.994;-3.936;2023-06-10T06:42:56;11.57;;;8.65;;
74383;SDS011;62824;52.994;-3.936;2023-06-10T06:45:22;13.35;;;8.57;;
74383;SDS011;62824;52.994;-3.936;2023-06-10T06:47:48;10.65;;;8.70;;
74383;SDS011;62824;52.994;-3.936;2023-06-10T06:50:14;11.93;;;9.00;;
74383;SDS011;62824;52.994;-3.936;2023-06-10T06:52:40;12.57;;;9.10;;
74383;SDS011;62824;52.994;-3.936;2023-06-10T06:55:06;11.85;;;9.00;;
74383;SDS011;62824;52.994;-3.936;2023-06-10T06:57:32;11.68;;;9.20;;
74383;SDS011;62824;52.994;-3.936;2023-06-10T06:59:58;11.85;;;9.10;;
74383;SDS011;62824;52.994;-3.936;2023-06-10T07:02:23;12.13;;;9.13;;
74383;SDS011;62824;52.994;-3.936;2023-06-10T07:04:49;12.18;;;9.25;;
74383;SDS011;62824;52.994;-3.936;2023-06-10T07:07:15;11.80;;;8.50;;
74383;SDS011;62824;52.994;-3.936;2023-06-10T07:09:41;11.13;;;8.95;;
74383;SDS011;62824;52.994;-3.936;2023-06-10T07:12:07;14.30;;;9.32;;
74383;SDS011;62824;52.994;-3.936;2023-06-10T07:14:33;11.40;;;8.60;;
74383;SDS011;62824;52.994;-3.936;2023-06-10T07:16:59;11.48;;;9.30;;
74383;SDS011;62824;52.994;-3.936;2023-06-10T07:19:24;22.33;;;10.43;;
74383;SDS011;62824;52.994;-3.936;2023-06-10T07:21:50;10.50;;;8.32;;
74383;SDS011;62824;52.994;-3.936;2023-06-10T07:24:16;11.13;;;8.50;;
74383;SDS011;62824;52.994;-3.936;2023-06-10T07:26:42;13.93;;;8.27;;
74383;SDS011;62824;52.994;-3.936;2023-06-10T07:29:07;11.18;;;8.40;;
74383;SDS011;62824;52.994;-3.936;2023-06-10T07:31:33;12.05;;;8.73;;
74383;SDS011;62824;52.994;-3.936;2023-06-10T07:33:59;12.93;;;9.15;;
74383;SDS011;62824;52.994;-3.936;2023-06-10T07:36:25;12.43;;;8.48;;
74383;SDS011;62824;52.994;-3.936;2023-06-10T07:38:53;10.93;;;7.93;;
74383;SDS011;62824;52.994;-3.936;2023-06-10T07:41:20;11.45;;;7.70;;
74383;SDS011;62824;52.994;-3.936;2023-06-10T07:43:47;13.98;;;8.20;;
74383;SDS011;62824;52.994;-3.936;2023-06-10T07:46:13;16.00;;;9.50;;
74383;SDS011;62824;52.994;-3.936;2023-06-10T07:48:39;12.57;;;8.48;;
74383;SDS011;62824;52.994;-3.936;2023-06-10T07:51:04;11.93;;;8.30;;
74383;SDS011;62824;52.994;-3.936;2023-06-10T07:53:30;11.82;;;8.63;;
74383;SDS011;62824;52.994;-3.936;2023-06-10T07:55:56;14.68;;;10.13;;
74383;SDS011;62824;52.994;-3.936;2023-06-10T07:58:21;11.15;;;8.70;;
74383;SDS011;62824;52.994;-3.936;2023-06-10T08:00:47;11.73;;;8.77;;
74383;SDS011;62824;52.994;-3.936;2023-06-10T08:03:13;14.38;;;10.77;;
74383;SDS011;62824;52.994;-3.936;2023-06-10T08:05:39;12.30;;;9.32;;
74383;SDS011;62824;52.994;-3.936;2023-06-10T08:08:06;15.63;;;11.93;;
74383;SDS011;62824;52.994;-3.936;2023-06-10T08:10:31;10.95;;;8.57;;
74383;SDS011;62824;52.994;-3.936;2023-06-10T08:12:58;11.63;;;8.45;;
74383;SDS011;62824;52.994;-3.936;2023-06-10T08:15:23;11.20;;;8.23;;
74383;SDS011;62824;52.994;-3.936;2023-06-10T08:17:49;13.43;;;8.32;;
74383;SDS011;62824;52.994;-3.936;2023-06-10T08:20:17;11.90;;;8.85;;
74383;SDS011;62824;52.994;-3.936;2023-06-10T08:22:43;11.85;;;10.23;;
74383;SDS011;62824;52.994;-3.936;2023-06-10T08:25:11;11.27;;;8.30;;
74383;SDS011;62824;52.994;-3.936;2023-06-10T08:27:40;9.07;;;8.00;;
74383;SDS011;62824;52.994;-3.936;2023-06-10T08:30:06;11.43;;;7.47;;
74383;SDS011;62824;52.994;-3.936;2023-06-10T08:32:33;8.85;;;7.78;;
74383;SDS011;62824;52.994;-3.936;2023-06-10T08:34:58;10.63;;;7.63;;
74383;SDS011;62824;52.994;-3.936;2023-06-10T08:37:24;11.05;;;8.57;;
74383;SDS011;62824;52.994;-3.936;2023-06-10T08:39:50;13.00;;;8.23;;
74383;SDS011;62824;52.994;-3.936;2023-06-10T08:42:21;10.10;;;7.60;;
74383;SDS011;62824;52.994;-3.936;2023-06-10T08:44:56;11.88;;;8.00;;
74383;SDS011;62824;52.994;-3.936;2023-06-10T08:47:22;10.83;;;7.77;;
74383;SDS011;62824;52.994;-3.936;2023-06-10T08:49:49;12.85;;;7.60;;
74383;SDS011;62824;52.994;-3.936;2023-06-10T08:52:17;12.30;;;7.70;;
74383;SDS011;62824;52.994;-3.936;2023-06-10T08:57:37;8.93;;;7.68;;
74383;SDS011;62824;52.994;-3.936;2023-06-10T09:00:03;9.18;;;8.20;;
74383;SDS011;62824;52.994;-3.936;2023-06-10T09:02:31;12.95;;;7.90;;
74383;SDS011;62824;52.994;-3.936;2023-06-10T09:05:00;11.50;;;7.80;;
74383;SDS011;62824;52.994;-3.936;2023-06-10T09:07:30;9.38;;;7.78;;
74383;SDS011;62824;52.994;-3.936;2023-06-10T09:10:01;10.80;;;7.82;;
74383;SDS011;62824;52.994;-3.936;2023-06-10T09:12:35;9.02;;;7.85;;
74383;SDS011;62824;52.994;-3.936;2023-06-10T09:15:04;10.02;;;7.53;;
74383;SDS011;62824;52.994;-3.936;2023-06-10T09:17:32;8.90;;;7.35;;
74383;SDS011;62824;52.994;-3.936;2023-06-10T09:19:59;8.68;;;7.10;;
74383;SDS011;62824;52.994;-3.936;2023-06-10T09:22:30;16.33;;;7.55;;
74383;SDS011;62824;52.994;-3.936;2023-06-10T09:25:07;8.00;;;6.85;;
74383;SDS011;62824;52.994;-3.936;2023-06-10T09:27:50;11.75;;;7.82;;
74383;SDS011;62824;52.994;-3.936;2023-06-10T09:32:55;9.20;;;7.57;;
74383;SDS011;62824;52.994;-3.936;2023-06-10T09:35:26;9.82;;;7.43;;
74383;SDS011;62824;52.994;-3.936;2023-06-10T09:37:56;11.20;;;6.88;;
74383;SDS011;62824;52.994;-3.936;2023-06-10T09:40:24;9.25;;;8.02;;
74383;SDS011;62824;52.994;-3.936;2023-06-10T09:42:59;9.38;;;6.93;;
74383;SDS011;62824;52.994;-3.936;2023-06-10T09:45:31;8.10;;;7.00;;
74383;SDS011;62824;52.994;-3.936;2023-06-10T09:47:57;8.43;;;6.80;;
74383;SDS011;62824;52.994;-3.936;2023-06-10T09:50:23;7.65;;;6.95;;
74383;SDS011;62824;52.994;-3.936;2023-06-10T09:52:49;9.20;;;7.50;;
74383;SDS011;62824;52.994;-3.936;2023-06-10T09:55:16;9.55;;;7.93;;
74383;SDS011;62824;52.994;-3.936;2023-06-10T09:57:43;7.97;;;7.03;;
74383;SDS011;62824;52.994;-3.936;2023-06-10T10:00:13;7.90;;;7.07;;
74383;SDS011;62824;52.994;-3.936;2023-06-10T10:05:16;7.68;;;6.88;;
74383;SDS011;62824;52.994;-3.936;2023-06-10T10:07:43;9.13;;;7.43;;
74383;SDS011;62824;52.994;-3.936;2023-06-10T10:10:10;8.25;;;6.90;;
74383;SDS011;62824;52.994;-3.936;2023-06-10T10:12:38;7.13;;;6.45;;
74383;SDS011;62824;52.994;-3.936;2023-06-10T10:15:07;7.70;;;6.90;;
74383;SDS011;62824;52.994;-3.936;2023-06-10T10:17:40;7.95;;;7.15;;
74383;SDS011;62824;52.994;-3.936;2023-06-10T10:20:12;8.65;;;7.07;;
74383;SDS011;62824;52.994;-3.936;2023-06-10T10:22:42;8.20;;;6.93;;
74383;SDS011;62824;52.994;-3.936;2023-06-10T10:25:23;11.10;;;7.25;;
74383;SDS011;62824;52.994;-3.936;2023-06-10T10:28:03;32.67;;;8.77;;
74383;SDS011;62824;52.994;-3.936;2023-06-10T10:30:33;8.52;;;7.07;;
74383;SDS011;62824;52.994;-3.936;2023-06-10T10:33:06;9.43;;;7.65;;
74383;SDS011;62824;52.994;-3.936;2023-06-10T10:35:37;7.95;;;7.22;;
74383;SDS011;62824;52.994;-3.936;2023-06-10T10:38:04;8.02;;;7.15;;
74383;SDS011;62824;52.994;-3.936;2023-06-10T10:40:31;8.93;;;7.43;;
74383;SDS011;62824;52.994;-3.936;2023-06-10T10:42:58;9.80;;;7.47;;
74383;SDS011;62824;52.994;-3.936;2023-06-10T10:45:27;8.05;;;7.15;;
74383;SDS011;62824;52.994;-3.936;2023-06-10T10:47:54;7.90;;;7.20;;
74383;SDS011;62824;52.994;-3.936;2023-06-10T10:50:21;7.05;;;6.45;;
74383;SDS011;62824;52.994;-3.936;2023-06-10T10:55:26;7.75;;;7.00;;
74383;SDS011;62824;52.994;-3.936;2023-06-10T10:57:53;7.85;;;7.05;;
74383;SDS011;62824;52.994;-3.936;2023-06-10T11:00:34;8.43;;;7.63;;
74383;SDS011;62824;52.994;-3.936;2023-06-10T11:08:59;7.43;;;6.82;;
74383;SDS011;62824;52.994;-3.936;2023-06-10T11:11:00;9.05;;;7.47;;
74383;SDS011;62824;52.994;-3.936;2023-06-10T11:13:29;8.15;;;7.35;;
74383;SDS011;62824;52.994;-3.936;2023-06-10T11:15:58;8.07;;;7.30;;
74383;SDS011;62824;52.994;-3.936;2023-06-10T11:18:30;8.35;;;7.20;;
74383;SDS011;62824;52.994;-3.936;2023-06-10T11:21:04;7.90;;;7.10;;
74383;SDS011;62824;52.994;-3.936;2023-06-10T11:26:29;9.00;;;7.47;;
74383;SDS011;62824;52.994;-3.936;2023-06-10T11:31:29;9.65;;;7.15;;
74383;SDS011;62824;52.994;-3.936;2023-06-10T11:33:56;10.80;;;6.78;;
74383;SDS011;62824;52.994;-3.936;2023-06-10T11:36:24;7.57;;;6.65;;
74383;SDS011;62824;52.994;-3.936;2023-06-10T11:39:24;7.38;;;6.63;;
74383;SDS011;62824;52.994;-3.936;2023-06-10T11:41:44;8.35;;;7.05;;
74383;SDS011;62824;52.994;-3.936;2023-06-10T11:44:12;6.88;;;6.28;;
74383;SDS011;62824;52.994;-3.936;2023-06-10T11:46:39;6.78;;;6.07;;
74383;SDS011;62824;52.994;-3.936;2023-06-10T11:49:05;7.72;;;6.93;;
74383;SDS011;62824;52.994;-3.936;2023-06-10T11:51:35;8.85;;;6.80;;
74383;SDS011;62824;52.994;-3.936;2023-06-10T11:54:03;7.78;;;7.00;;
74383;SDS011;62824;52.994;-3.936;2023-06-10T11:56:30;7.30;;;6.60;;
74383;SDS011;62824;52.994;-3.936;2023-06-10T11:59:00;7.03;;;6.43;;
74383;SDS011;62824;52.994;-3.936;2023-06-10T12:01:32;8.82;;;6.50;;
74383;SDS011;62824;52.994;-3.936;2023-06-10T12:04:00;7.10;;;6.40;;
74383;SDS011;62824;52.994;-3.936;2023-06-10T12:06:46;8.30;;;7.38;;
74383;SDS011;62824;52.994;-3.936;2023-06-10T12:09:14;9.30;;;7.75;;
74383;SDS011;62824;52.994;-3.936;2023-06-10T12:11:51;6.97;;;6.38;;
74383;SDS011;62824;52.994;-3.936;2023-06-10T12:17:44;8.02;;;7.32;;
74383;SDS011;62824;52.994;-3.936;2023-06-10T12:20:09;8.07;;;7.28;;
74383;SDS011;62824;52.994;-3.936;2023-06-10T12:22:58;8.05;;;6.93;;
74383;SDS011;62824;52.994;-3.936;2023-06-10T12:25:26;8.65;;;7.18;;
74383;SDS011;62824;52.994;-3.936;2023-06-10T12:27:55;9.05;;;7.00;;
74383;SDS011;62824;52.994;-3.936;2023-06-10T12:30:23;9.70;;;7.32;;
74383;SDS011;62824;52.994;-3.936;2023-06-10T12:32:51;10.00;;;7.45;;
74383;SDS011;62824;52.994;-3.936;2023-06-10T12:35:24;7.90;;;7.10;;
74383;SDS011;62824;52.994;-3.936;2023-06-10T12:42:58;10.02;;;7.05;;
74383;SDS011;62824;52.994;-3.936;2023-06-10T12:48:03;8.70;;;6.93;;
74383;SDS011;62824;52.994;-3.936;2023-06-10T12:53:04;8.32;;;7.20;;
74383;SDS011;62824;52.994;-3.936;2023-06-10T12:55:30;8.95;;;7.38;;
74383;SDS011;62824;52.994;-3.936;2023-06-10T12:57:57;8.90;;;7.97;;
74383;SDS011;62824;52.994;-3.936;2023-06-10T13:00:24;8.70;;;7.90;;
74383;SDS011;62824;52.994;-3.936;2023-06-10T13:02:55;8.52;;;7.60;;
74383;SDS011;62824;52.994;-3.936;2023-06-10T13:05:21;8.45;;;7.65;;
74383;SDS011;62824;52.994;-3.936;2023-06-10T13:07:47;8.25;;;7.47;;
74383;SDS011;62824;52.994;-3.936;2023-06-10T13:10:14;8.85;;;8.00;;
74383;SDS011;62824;52.994;-3.936;2023-06-10T13:12:44;9.82;;;8.43;;
74383;SDS011;62824;52.994;-3.936;2023-06-10T13:15:12;8.13;;;7.32;;
74383;SDS011;62824;52.994;-3.936;2023-06-10T13:17:38;9.00;;;8.10;;
74383;SDS011;62824;52.994;-3.936;2023-06-10T13:20:07;8.95;;;8.05;;
74383;SDS011;62824;52.994;-3.936;2023-06-10T13:22:34;8.82;;;7.80;;
74383;SDS011;62824;52.994;-3.936;2023-06-10T13:25:02;8.50;;;7.70;;
74383;SDS011;62824;52.994;-3.936;2023-06-10T13:27:29;9.20;;;8.30;;
74383;SDS011;62824;52.994;-3.936;2023-06-10T13:29:56;9.05;;;8.00;;
74383;SDS011;62824;52.994;-3.936;2023-06-10T13:32:29;9.23;;;8.00;;
74383;SDS011;62824;52.994;-3.936;2023-06-10T13:34:56;10.15;;;9.15;;
74383;SDS011;62824;52.994;-3.936;2023-06-10T13:37:22;10.68;;;8.50;;
74383;SDS011;62824;52.994;-3.936;2023-06-10T13:39:48;9.85;;;8.65;;
74383;SDS011;62824;52.994;-3.936;2023-06-10T13:42:18;8.90;;;8.00;;
74383;SDS011;62824;52.994;-3.936;2023-06-10T13:44:45;10.20;;;8.25;;
74383;SDS011;62824;52.994;-3.936;2023-06-10T13:47:16;8.60;;;7.70;;
74383;SDS011;62824;52.994;-3.936;2023-06-10T13:49:42;8.82;;;7.85;;
74383;SDS011;62824;52.994;-3.936;2023-06-10T13:52:08;9.25;;;8.32;;
74383;SDS011;62824;52.994;-3.936;2023-06-10T13:54:37;9.80;;;8.50;;
74383;SDS011;62824;52.994;-3.936;2023-06-10T13:57:03;9.95;;;7.82;;
74383;SDS011;62824;52.994;-3.936;2023-06-10T13:59:28;9.57;;;8.52;;
74383;SDS011;62824;52.994;-3.936;2023-06-10T14:01:54;9.70;;;8.73;;
74383;SDS011;62824;52.994;-3.936;2023-06-10T14:04:21;10.77;;;9.65;;
74383;SDS011;62824;52.994;-3.936;2023-06-10T14:06:47;9.63;;;8.60;;
74383;SDS011;62824;52.994;-3.936;2023-06-10T14:09:13;10.85;;;9.27;;
74383;SDS011;62824;52.994;-3.936;2023-06-10T14:11:39;11.55;;;9.07;;
74383;SDS011;62824;52.994;-3.936;2023-06-10T14:14:05;12.00;;;9.35;;
74383;SDS011;62824;52.994;-3.936;2023-06-10T14:16:31;10.30;;;9.10;;
74383;SDS011;62824;52.994;-3.936;2023-06-10T14:18:57;11.07;;;9.55;;
74383;SDS011;62824;52.994;-3.936;2023-06-10T14:21:23;10.88;;;9.18;;
74383;SDS011;62824;52.994;-3.936;2023-06-10T14:23:49;10.60;;;9.50;;
74383;SDS011;62824;52.994;-3.936;2023-06-10T14:26:16;10.65;;;9.55;;
74383;SDS011;62824;52.994;-3.936;2023-06-10T14:28:42;12.75;;;9.98;;
74383;SDS011;62824;52.994;-3.936;2023-06-10T14:31:08;12.63;;;9.93;;
74383;SDS011;62824;52.994;-3.936;2023-06-10T14:33:34;11.55;;;10.25;;
74383;SDS011;62824;52.994;-3.936;2023-06-10T14:35:59;13.00;;;10.45;;
74383;SDS011;62824;52.994;-3.936;2023-06-10T14:38:25;13.65;;;10.77;;
74383;SDS011;62824;52.994;-3.936;2023-06-10T14:40:51;14.07;;;10.40;;
74383;SDS011;62824;52.994;-3.936;2023-06-10T14:43:17;12.05;;;10.55;;
74383;SDS011;62824;52.994;-3.936;2023-06-10T14:45:43;12.82;;;9.95;;
74383;SDS011;62824;52.994;-3.936;2023-06-10T14:48:10;12.00;;;10.50;;
74383;SDS011;62824;52.994;-3.936;2023-06-10T14:50:37;13.93;;;11.52;;
74383;SDS011;62824;52.994;-3.936;2023-06-10T14:53:05;13.20;;;11.30;;
74383;SDS011;62824;52.994;-3.936;2023-06-10T14:55:31;15.50;;;11.30;;
74383;SDS011;62824;52.994;-3.936;2023-06-10T14:57:57;14.57;;;12.02;;
74383;SDS011;62824;52.994;-3.936;2023-06-10T15:00:23;16.73;;;13.25;;
74383;SDS011;62824;52.994;-3.936;2023-06-10T15:02:50;14.35;;;12.70;;